Time;durP1;ratioP1;P1;durP2;ratioP2;P2;SDS_P1;SDS_P2;PMS_P1;PMS_P2;Temp;Humidity;BMP_temperature;BMP_pressure;BME280_temperature;BME280_humidity;BME280_pressure;Samples;Min_cycle;Max_cycle;Signal;HPM_P1;HPM_P2
2021/10/08 00:01:20;;;;;;;5.25;2.40;;;;;;;;;;5111418;28;20024;-68
2021/10/08 00:03:47;;;;;;;9.32;3.25;;;;;;;;;;5110075;28;20023;-68
2021/10/08 00:06:13;;;;;;;5.47;2.28;;;;;;;;;;5104204;28;20064;-68
2021/10/08 00:08:41;;;;;;;6.93;2.53;;;;;;;;;;5109420;28;20032;-68
2021/10/08 00:11:07;;;;;;;4.27;1.80;;;;;;;;;;5111783;28;20024;-68
2021/10/08 00:13:33;;;;;;;4.15;1.73;;;;;;;;;;5109511;28;20370;-67
2021/10/08 00:16:00;;;;;;;4.53;1.67;;;;;;;;;;5109375;28;20102;-68
2021/10/08 00:18:27;;;;;;;6.20;1.88;;;;;;;;;;5109727;28;20024;-68
2021/10/08 00:20:52;;;;;;;5.15;2.25;;;;;;;;;;5109625;28;20020;-68
2021/10/08 00:23:18;;;;;;;3.75;1.90;;;;;;;;;;5110187;28;20028;-68
2021/10/08 00:25:44;;;;;;;3.58;1.88;;;;;;;;;;5112172;28;20098;-67
2021/10/08 00:28:10;;;;;;;8.13;1.90;;;;;;;;;;5109108;28;20030;-67
2021/10/08 00:30:36;;;;;;;4.07;2.03;;;;;;;;;;5108981;28;20102;-67
2021/10/08 00:33:03;;;;;;;5.50;1.90;;;;;;;;;;5109429;28;20034;-67
2021/10/08 00:35:29;;;;;;;6.85;1.95;;;;;;;;;;5109579;28;20074;-67
2021/10/08 00:37:56;;;;;;;5.30;1.98;;;;;;;;;;5112076;28;20024;-67
2021/10/08 00:40:22;;;;;;;4.47;2.00;;;;;;;;;;5109495;28;20023;-67
2021/10/08 00:42:49;;;;;;;6.00;2.05;;;;;;;;;;5109279;28;20072;-67
2021/10/08 00:45:16;;;;;;;6.13;2.22;;;;;;;;;;5108773;28;20451;-67
2021/10/08 00:47:42;;;;;;;6.18;1.90;;;;;;;;;;5108807;28;20396;-67
2021/10/08 00:50:09;;;;;;;3.67;1.63;;;;;;;;;;5111186;28;20398;-67
2021/10/08 00:52:35;;;;;;;5.57;1.70;;;;;;;;;;5110609;28;20038;-66
2021/10/08 00:55:01;;;;;;;3.80;1.52;;;;;;;;;;5108775;28;20024;-66
2021/10/08 00:57:27;;;;;;;3.17;1.52;;;;;;;;;;5108603;28;20475;-66
2021/10/08 00:59:53;;;;;;;5.32;1.83;;;;;;;;;;5108455;28;20043;-68
2021/10/08 01:02:19;;;;;;;6.85;1.90;;;;;;;;;;5109838;28;20048;-68
2021/10/08 01:04:48;;;;;;;4.07;1.80;;;;;;;;;;5111912;28;20068;-69
2021/10/08 01:07:14;;;;;;;4.45;1.90;;;;;;;;;;5108491;28;20020;-68
2021/10/08 01:09:40;;;;;;;3.60;1.80;;;;;;;;;;5108437;28;20390;-66
2021/10/08 01:12:07;;;;;;;3.83;1.52;;;;;;;;;;5108565;28;20118;-68
2021/10/08 01:14:33;;;;;;;4.72;1.92;;;;;;;;;;5108893;28;20115;-68
2021/10/08 01:16:59;;;;;;;4.15;1.50;;;;;;;;;;5111504;28;20110;-68
2021/10/08 01:19:25;;;;;;;6.13;2.00;;;;;;;;;;5109292;28;20032;-68
2021/10/08 01:21:54;;;;;;;3.05;1.35;;;;;;;;;;5108439;28;20027;-68
2021/10/08 01:24:20;;;;;;;4.47;1.42;;;;;;;;;;5108473;28;20069;-68
2021/10/08 01:26:46;;;;;;;3.35;1.40;;;;;;;;;;5108369;28;20024;-67
2021/10/08 01:29:12;;;;;;;2.92;1.48;;;;;;;;;;5110182;28;20036;-67
2021/10/08 01:31:38;;;;;;;4.82;1.70;;;;;;;;;;5110072;28;20044;-67
2021/10/08 01:34:06;;;;;;;3.77;1.50;;;;;;;;;;5107901;28;20055;-67
2021/10/08 01:36:32;;;;;;;5.65;1.65;;;;;;;;;;5108588;28;20280;-68
2021/10/08 01:38:58;;;;;;;7.93;1.67;;;;;;;;;;5107986;28;20024;-67
2021/10/08 01:41:24;;;;;;;3.35;1.63;;;;;;;;;;5108947;28;20455;-67
2021/10/08 01:43:50;;;;;;;2.95;1.65;;;;;;;;;;5110839;28;20027;-68
2021/10/08 01:46:16;;;;;;;2.55;1.48;;;;;;;;;;5108074;28;20031;-68
2021/10/08 01:48:42;;;;;;;2.88;1.40;;;;;;;;;;5107664;28;20035;-67
2021/10/08 01:51:08;;;;;;;3.60;1.65;;;;;;;;;;5108444;28;20030;-68
2021/10/08 01:53:34;;;;;;;4.60;1.40;;;;;;;;;;5108320;28;20032;-68
2021/10/08 01:56:00;;;;;;;3.17;1.40;;;;;;;;;;5111140;28;20070;-68
2021/10/08 01:58:26;;;;;;;4.00;1.33;;;;;;;;;;5109260;28;20031;-68
2021/10/08 02:00:52;;;;;;;5.30;1.70;;;;;;;;;;5101067;28;20032;-68
2021/10/08 02:03:18;;;;;;;3.03;1.50;;;;;;;;;;5098377;28;20064;-68
2021/10/08 02:05:44;;;;;;;4.30;1.40;;;;;;;;;;5108390;28;20016;-68
2021/10/08 02:08:10;;;;;;;4.13;1.67;;;;;;;;;;5109847;28;20382;-68
2021/10/08 02:10:36;;;;;;;2.55;1.60;;;;;;;;;;5109623;28;20035;-66
2021/10/08 02:13:02;;;;;;;2.22;1.30;;;;;;;;;;5108276;28;20020;-68
2021/10/08 02:15:28;;;;;;;2.38;1.20;;;;;;;;;;5107825;28;20067;-67
2021/10/08 02:17:54;;;;;;;2.35;1.20;;;;;;;;;;5107949;28;20089;-66
2021/10/08 02:20:20;;;;;;;3.67;1.20;;;;;;;;;;5096715;28;20031;-67
2021/10/08 02:22:47;;;;;;;3.45;1.30;;;;;;;;;;5114810;28;20035;-66
2021/10/08 02:25:13;;;;;;;1.92;1.23;;;;;;;;;;5111529;28;20012;-67
2021/10/08 02:27:39;;;;;;;4.40;1.50;;;;;;;;;;5111807;28;20047;-66
2021/10/08 02:30:05;;;;;;;3.97;1.63;;;;;;;;;;5111829;28;20512;-67
2021/10/08 02:32:31;;;;;;;4.40;1.60;;;;;;;;;;5111356;28;20043;-67
2021/10/08 02:34:57;;;;;;;6.07;1.60;;;;;;;;;;5114173;28;20040;-67
2021/10/08 02:37:23;;;;;;;5.78;1.77;;;;;;;;;;5112346;28;20020;-68
2021/10/08 02:39:49;;;;;;;5.78;1.90;;;;;;;;;;5105889;28;20019;-67
2021/10/08 02:42:16;;;;;;;5.53;2.22;;;;;;;;;;5111709;28;20042;-67
2021/10/08 02:44:42;;;;;;;8.23;1.75;;;;;;;;;;5111157;28;20024;-67
2021/10/08 02:47:08;;;;;;;4.28;1.70;;;;;;;;;;5113528;28;20103;-67
2021/10/08 02:49:35;;;;;;;2.95;1.50;;;;;;;;;;5111946;28;20127;-67
2021/10/08 02:52:01;;;;;;;6.43;1.65;;;;;;;;;;5111494;28;20016;-67
2021/10/08 02:54:27;;;;;;;4.28;1.63;;;;;;;;;;5111340;27;20064;-67
2021/10/08 02:56:53;;;;;;;3.88;1.60;;;;;;;;;;5110990;28;20094;-67
2021/10/08 02:59:20;;;;;;;3.10;1.38;;;;;;;;;;5111434;28;20532;-67
2021/10/08 03:01:46;;;;;;;4.00;1.50;;;;;;;;;;5114200;28;20346;-67
2021/10/08 03:04:12;;;;;;;2.58;1.23;;;;;;;;;;5110924;28;20134;-67
2021/10/08 03:06:38;;;;;;;2.03;1.25;;;;;;;;;;5111195;28;20091;-67
2021/10/08 03:09:04;;;;;;;2.75;1.42;;;;;;;;;;5110050;28;20043;-67
2021/10/08 03:11:30;;;;;;;2.97;1.63;;;;;;;;;;5109900;28;20111;-67
2021/10/08 03:13:56;;;;;;;6.03;1.90;;;;;;;;;;5114300;28;20092;-67
2021/10/08 03:16:22;;;;;;;7.72;2.28;;;;;;;;;;5111386;28;20031;-67
2021/10/08 03:18:48;;;;;;;4.72;1.90;;;;;;;;;;5110743;28;20027;-67
2021/10/08 03:21:14;;;;;;;5.75;1.90;;;;;;;;;;5110282;28;20024;-67
2021/10/08 03:23:40;;;;;;;4.88;1.55;;;;;;;;;;5110668;28;20057;-67
2021/10/08 03:26:06;;;;;;;6.88;2.00;;;;;;;;;;5113051;28;20034;-67
2021/10/08 03:28:32;;;;;;;3.75;1.80;;;;;;;;;;5111703;28;20429;-67
2021/10/08 03:30:59;;;;;;;3.13;1.75;;;;;;;;;;5110125;28;20047;-67
2021/10/08 03:33:25;;;;;;;4.38;1.67;;;;;;;;;;5110066;28;20546;-66
2021/10/08 03:35:52;;;;;;;3.95;1.60;;;;;;;;;;5110461;28;20024;-67
2021/10/08 03:38:19;;;;;;;4.13;1.77;;;;;;;;;;5111617;28;20096;-66
2021/10/08 03:41:09;;;;;;;3.28;1.67;;;;;;;;;;5113537;28;20027;-67
2021/10/08 03:43:35;;;;;;;8.85;1.77;;;;;;;;;;5111351;28;20035;-67
2021/10/08 03:46:05;;;;;;;3.60;1.63;;;;;;;;;;5110081;27;20068;-67
2021/10/08 03:50:57;;;;;;;4.45;1.65;;;;;;;;;;5099734;28;20455;-67
2021/10/08 03:53:23;;;;;;;4.55;1.50;;;;;;;;;;5110129;28;20028;-67
2021/10/08 03:55:49;;;;;;;2.30;1.40;;;;;;;;;;5113698;28;20099;-67
2021/10/08 03:58:15;;;;;;;2.97;1.52;;;;;;;;;;5109884;28;20098;-67
2021/10/08 04:00:41;;;;;;;3.90;1.23;;;;;;;;;;5110148;28;20028;-67
2021/10/08 04:03:07;;;;;;;4.28;1.35;;;;;;;;;;5109908;28;20034;-67
2021/10/08 04:05:33;;;;;;;3.70;1.73;;;;;;;;;;5109332;28;20032;-67
2021/10/08 04:07:59;;;;;;;4.03;1.40;;;;;;;;;;5112298;28;20055;-67
2021/10/08 04:10:25;;;;;;;4.60;1.70;;;;;;;;;;5110733;28;20040;-67
2021/10/08 04:12:51;;;;;;;3.85;1.40;;;;;;;;;;5109859;28;20031;-67
2021/10/08 04:15:17;;;;;;;4.30;1.73;;;;;;;;;;5104241;28;20035;-67
2021/10/08 04:17:43;;;;;;;3.33;1.60;;;;;;;;;;5109196;28;20353;-66
2021/10/08 04:20:10;;;;;;;4.68;1.52;;;;;;;;;;5100795;28;20025;-67
2021/10/08 04:22:36;;;;;;;4.45;1.80;;;;;;;;;;5111194;28;20436;-67
2021/10/08 04:25:02;;;;;;;4.57;1.60;;;;;;;;;;5109618;28;20081;-67
2021/10/08 04:27:28;;;;;;;3.88;1.77;;;;;;;;;;5109483;28;20081;-66
2021/10/08 04:29:54;;;;;;;4.75;1.80;;;;;;;;;;5109384;28;20461;-67
2021/10/08 04:32:20;;;;;;;5.88;1.75;;;;;;;;;;5107593;28;20119;-67
2021/10/08 04:34:45;;;;;;;5.93;1.80;;;;;;;;;;5110761;28;20119;-66
2021/10/08 04:37:11;;;;;;;5.60;1.52;;;;;;;;;;5109217;28;20034;-67
2021/10/08 04:39:37;;;;;;;5.40;1.70;;;;;;;;;;5109341;28;20062;-67
2021/10/08 04:42:03;;;;;;;6.93;1.50;;;;;;;;;;5108866;28;20032;-67
2021/10/08 04:44:32;;;;;;;4.88;1.70;;;;;;;;;;5107873;28;20540;-66
2021/10/08 04:46:58;;;;;;;5.65;1.65;;;;;;;;;;5111244;28;20394;-66
2021/10/08 04:49:24;;;;;;;3.55;1.50;;;;;;;;;;5109987;28;20027;-67
2021/10/08 04:51:50;;;;;;;5.43;1.67;;;;;;;;;;5108972;28;20080;-66
2021/10/08 04:54:16;;;;;;;2.40;1.30;;;;;;;;;;5108794;28;20027;-67
2021/10/08 04:56:42;;;;;;;4.95;1.63;;;;;;;;;;5109022;28;20032;-66
2021/10/08 04:59:08;;;;;;;5.97;1.52;;;;;;;;;;5111100;28;20024;-66
2021/10/08 05:01:34;;;;;;;4.50;1.65;;;;;;;;;;5109780;28;20012;-66
2021/10/08 05:04:00;;;;;;;4.45;1.95;;;;;;;;;;5109040;28;20027;-66
2021/10/08 05:06:26;;;;;;;5.35;2.13;;;;;;;;;;5108704;28;20444;-66
2021/10/08 05:08:52;;;;;;;3.65;1.60;;;;;;;;;;5108968;28;20035;-66
2021/10/08 05:11:18;;;;;;;3.35;1.52;;;;;;;;;;5109435;28;20023;-66
2021/10/08 05:13:44;;;;;;;5.68;1.55;;;;;;;;;;5111577;28;20467;-66
2021/10/08 05:16:10;;;;;;;5.47;1.60;;;;;;;;;;5108301;28;20093;-66
2021/10/08 05:18:37;;;;;;;6.88;1.90;;;;;;;;;;5108882;28;20024;-66
2021/10/08 05:21:03;;;;;;;5.55;2.20;;;;;;;;;;5108423;28;20067;-67
2021/10/08 05:23:29;;;;;;;2.65;1.65;;;;;;;;;;5108106;28;20047;-66
2021/10/08 05:25:55;;;;;;;4.93;2.20;;;;;;;;;;5111397;28;20106;-66
2021/10/08 05:28:21;;;;;;;9.77;2.67;;;;;;;;;;5110530;28;20027;-66
2021/10/08 05:30:47;;;;;;;5.28;2.30;;;;;;;;;;5108424;28;20166;-66
2021/10/08 05:33:13;;;;;;;5.50;1.85;;;;;;;;;;5108113;28;20077;-66
2021/10/08 05:35:39;;;;;;;3.65;1.90;;;;;;;;;;5108014;28;20028;-66
2021/10/08 05:38:05;;;;;;;3.65;1.63;;;;;;;;;;5110757;28;20047;-66
2021/10/08 05:40:32;;;;;;;11.82;2.50;;;;;;;;;;5109775;28;20066;-66
2021/10/08 05:42:58;;;;;;;4.65;2.10;;;;;;;;;;5108414;28;20084;-66
2021/10/08 05:45:24;;;;;;;4.78;1.42;;;;;;;;;;5108399;28;20103;-66
2021/10/08 05:47:50;;;;;;;9.40;2.50;;;;;;;;;;5108322;28;20148;-66
2021/10/08 05:50:16;;;;;;;7.97;1.88;;;;;;;;;;5101934;28;20520;-66
2021/10/08 05:52:42;;;;;;;3.47;1.60;;;;;;;;;;5110604;28;20019;-66
2021/10/08 05:55:08;;;;;;;5.32;1.90;;;;;;;;;;5109448;28;20031;-67
2021/10/08 05:57:34;;;;;;;6.68;1.67;;;;;;;;;;5112306;28;20020;-66
2021/10/08 06:00:00;;;;;;;4.80;1.70;;;;;;;;;;5111744;28;20031;-65
2021/10/08 06:02:26;;;;;;;5.85;2.00;;;;;;;;;;5112243;28;20024;-66
2021/10/08 06:04:52;;;;;;;4.60;1.90;;;;;;;;;;5115326;28;20395;-66
2021/10/08 06:07:18;;;;;;;4.43;2.47;;;;;;;;;;5111573;28;20035;-65
2021/10/08 06:09:46;;;;;;;8.15;2.13;;;;;;;;;;5112084;28;20043;-68
2021/10/08 06:12:12;;;;;;;4.00;2.00;;;;;;;;;;5111646;28;20024;-67
2021/10/08 06:14:39;;;;;;;4.65;2.00;;;;;;;;;;5112122;28;20103;-68
2021/10/08 06:17:05;;;;;;;8.18;1.98;;;;;;;;;;5114249;28;20483;-68
2021/10/08 06:19:31;;;;;;;4.35;1.80;;;;;;;;;;5113237;28;20065;-68
2021/10/08 06:21:57;;;;;;;6.78;2.20;;;;;;;;;;5111953;28;20058;-68
2021/10/08 06:24:23;;;;;;;5.47;2.03;;;;;;;;;;5112107;28;20024;-67
2021/10/08 06:26:48;;;;;;;7.38;3.15;;;;;;;;;;5112015;28;20027;-68
2021/10/08 06:29:15;;;;;;;6.95;3.05;;;;;;;;;;5112547;28;20046;-67
2021/10/08 06:31:41;;;;;;;9.13;3.22;;;;;;;;;;5113854;28;20039;-68
2021/10/08 06:34:07;;;;;;;12.10;3.42;;;;;;;;;;5104115;28;20399;-68
2021/10/08 06:36:33;;;;;;;12.52;3.35;;;;;;;;;;5104930;28;20026;-68
2021/10/08 06:38:59;;;;;;;11.50;3.92;;;;;;;;;;5104427;28;20028;-67
2021/10/08 06:41:25;;;;;;;10.55;3.80;;;;;;;;;;5105745;28;20068;-67
2021/10/08 06:43:51;;;;;;;9.10;3.30;;;;;;;;;;5106779;28;20098;-68
2021/10/08 06:46:17;;;;;;;11.48;3.63;;;;;;;;;;5104694;28;20140;-66
2021/10/08 06:48:43;;;;;;;6.32;3.15;;;;;;;;;;5104828;28;20028;-67
2021/10/08 06:51:08;;;;;;;6.05;3.10;;;;;;;;;;5103616;28;20166;-66
2021/10/08 06:53:35;;;;;;;5.38;2.40;;;;;;;;;;5105614;28;20080;-65
2021/10/08 06:56:00;;;;;;;5.30;2.17;;;;;;;;;;5103629;28;20452;-66
2021/10/08 06:58:26;;;;;;;7.53;1.90;;;;;;;;;;5103547;28;20051;-67
2021/10/08 07:00:54;;;;;;;3.33;1.73;;;;;;;;;;5102555;28;20024;-66
2021/10/08 07:03:20;;;;;;;5.75;1.70;;;;;;;;;;5105090;28;20019;-66
2021/10/08 07:05:46;;;;;;;2.95;1.70;;;;;;;;;;5102487;28;20111;-67
2021/10/08 07:08:12;;;;;;;3.22;1.50;;;;;;;;;;5104621;28;20063;-67
2021/10/08 07:10:39;;;;;;;3.22;1.70;;;;;;;;;;5105214;28;20050;-63
2021/10/08 07:13:08;;;;;;;3.85;1.30;;;;;;;;;;5104377;28;20016;-64
2021/10/08 07:15:34;;;;;;;2.90;1.20;;;;;;;;;;5104266;28;20055;-64
2021/10/08 07:18:01;;;;;;;2.63;1.38;;;;;;;;;;5103741;28;20020;-64
2021/10/08 07:20:28;;;;;;;3.03;1.50;;;;;;;;;;5102574;28;20469;-64
2021/10/08 07:22:55;;;;;;;6.40;1.37;;;;;;;;;;5104519;28;20388;-64
2021/10/08 07:25:25;;;;;;;2.63;1.40;;;;;;;;;;5103959;28;20031;-64
2021/10/08 07:27:51;;;;;;;5.07;1.50;;;;;;;;;;5104402;28;20086;-64
2021/10/08 07:30:18;;;;;;;3.45;1.52;;;;;;;;;;5103662;28;20063;-63
2021/10/08 07:32:45;;;;;;;3.47;1.20;;;;;;;;;;5097229;28;20391;-64
2021/10/08 07:35:11;;;;;;;2.50;1.40;;;;;;;;;;5103242;28;20051;-64
2021/10/08 07:37:38;;;;;;;4.00;1.40;;;;;;;;;;5104610;28;20430;-63
2021/10/08 07:40:05;;;;;;;2.10;1.38;;;;;;;;;;5106914;28;20028;-63
2021/10/08 07:42:32;;;;;;;7.75;1.88;;;;;;;;;;5107175;28;20035;-63
2021/10/08 07:44:58;;;;;;;3.88;1.73;;;;;;;;;;5104235;28;20031;-63
2021/10/08 07:47:24;;;;;;;5.40;1.80;;;;;;;;;;5105593;28;20020;-63
2021/10/08 07:49:50;;;;;;;4.13;1.73;;;;;;;;;;5106160;28;20034;-63
2021/10/08 07:52:16;;;;;;;3.95;1.77;;;;;;;;;;5106318;28;20015;-63
2021/10/08 07:54:42;;;;;;;5.25;1.60;;;;;;;;;;5105634;28;20024;-63
2021/10/08 07:57:08;;;;;;;4.05;1.55;;;;;;;;;;5105304;28;20027;-63
2021/10/08 07:59:34;;;;;;;4.18;1.50;;;;;;;;;;5101250;28;20379;-63
2021/10/08 08:02:00;;;;;;;5.78;1.45;;;;;;;;;;5105620;28;20026;-64
2021/10/08 08:04:26;;;;;;;11.05;1.90;;;;;;;;;;5105701;28;20026;-63
2021/10/08 08:06:52;;;;;;;2.95;1.45;;;;;;;;;;5105724;28;20024;-63
2021/10/08 08:09:18;;;;;;;6.28;1.88;;;;;;;;;;5105888;28;20043;-64
2021/10/08 08:11:45;;;;;;;4.55;1.17;;;;;;;;;;5103526;28;20510;-63
2021/10/08 08:14:11;;;;;;;5.43;1.50;;;;;;;;;;5105047;28;20023;-63
2021/10/08 08:16:37;;;;;;;3.03;1.30;;;;;;;;;;5104758;28;20028;-63
2021/10/08 08:19:03;;;;;;;5.18;1.60;;;;;;;;;;5104603;28;20032;-63
2021/10/08 08:21:29;;;;;;;5.50;1.30;;;;;;;;;;5109702;28;20027;-63
2021/10/08 08:23:55;;;;;;;3.47;1.40;;;;;;;;;;5109596;28;20030;-63
2021/10/08 08:26:21;;;;;;;4.43;1.30;;;;;;;;;;5109385;28;20020;-63
2021/10/08 08:28:47;;;;;;;3.85;1.40;;;;;;;;;;5112090;28;20544;-63
2021/10/08 08:31:15;;;;;;;3.03;1.60;;;;;;;;;;5109490;28;20020;-63
2021/10/08 08:33:42;;;;;;;3.22;1.38;;;;;;;;;;5109431;28;20077;-63
2021/10/08 08:36:08;;;;;;;2.92;1.25;;;;;;;;;;5109053;28;20028;-63
2021/10/08 08:38:34;;;;;;;2.67;1.10;;;;;;;;;;5108521;28;20088;-63
2021/10/08 08:41:00;;;;;;;2.28;1.20;;;;;;;;;;5112179;28;20031;-63
2021/10/08 08:43:26;;;;;;;2.55;1.10;;;;;;;;;;5110082;28;20035;-64
2021/10/08 08:45:53;;;;;;;3.25;1.30;;;;;;;;;;5108778;28;20471;-64
2021/10/08 08:48:19;;;;;;;1.48;1.00;;;;;;;;;;5108911;28;20031;-63
2021/10/08 08:50:46;;;;;;;5.10;1.20;;;;;;;;;;5109394;28;20020;-63
2021/10/08 08:53:13;;;;;;;4.20;1.20;;;;;;;;;;5110515;28;20035;-63
2021/10/08 08:55:39;;;;;;;5.07;1.40;;;;;;;;;;5110702;28;20035;-63
2021/10/08 08:58:05;;;;;;;3.03;1.30;;;;;;;;;;5108610;28;20486;-63
2021/10/08 09:00:31;;;;;;;2.15;1.23;;;;;;;;;;5109047;28;20028;-63
2021/10/08 09:02:58;;;;;;;4.57;1.92;;;;;;;;;;5103558;28;20020;-63
2021/10/08 09:05:27;;;;;;;3.33;1.23;;;;;;;;;;5092879;28;20425;-63
2021/10/08 09:07:57;;;;;;;2.78;1.10;;;;;;;;;;5108002;28;20027;-63
2021/10/08 09:10:28;;;;;;;1.85;1.10;;;;;;;;;;5108974;28;20028;-63
2021/10/08 09:12:56;;;;;;;2.10;1.08;;;;;;;;;;5108390;28;20016;-63
2021/10/08 09:15:22;;;;;;;2.67;1.17;;;;;;;;;;5108660;28;20019;-63
2021/10/08 09:17:48;;;;;;;5.03;1.10;;;;;;;;;;5108562;28;20032;-63
2021/10/08 09:20:18;;;;;;;2.85;0.90;;;;;;;;;;5110446;28;20027;-63
2021/10/08 09:22:46;;;;;;;3.47;1.00;;;;;;;;;;5111019;28;20059;-63
2021/10/08 09:25:15;;;;;;;1.73;0.90;;;;;;;;;;5108025;28;20088;-63
2021/10/08 09:27:42;;;;;;;2.58;1.17;;;;;;;;;;5108174;28;20466;-63
2021/10/08 09:30:09;;;;;;;5.18;1.60;;;;;;;;;;5108362;28;20092;-63
2021/10/08 09:32:40;;;;;;;3.60;1.40;;;;;;;;;;5108529;28;20044;-63
2021/10/08 09:35:08;;;;;;;3.05;1.25;;;;;;;;;;5110957;28;20027;-63
2021/10/08 09:37:34;;;;;;;2.80;1.38;;;;;;;;;;5109112;28;20081;-63
2021/10/08 09:40:00;;;;;;;1.95;0.90;;;;;;;;;;5108050;28;20106;-63
2021/10/08 09:42:40;;;;;;;3.22;1.30;;;;;;;;;;5108600;28;20577;-63
2021/10/08 09:45:06;;;;;;;4.43;1.63;;;;;;;;;;5108532;28;20104;-63
2021/10/08 09:47:32;;;;;;;2.83;1.17;;;;;;;;;;5107162;28;20499;-63
2021/10/08 09:50:08;;;;;;;2.85;1.30;;;;;;;;;;5111128;28;20027;-63
2021/10/08 09:52:34;;;;;;;1.95;0.95;;;;;;;;;;5109142;28;20103;-63
2021/10/08 09:55:05;;;;;;;3.90;1.10;;;;;;;;;;5107877;28;20035;-63
2021/10/08 09:57:51;;;;;;;3.60;1.20;;;;;;;;;;5107957;28;20429;-63
2021/10/08 10:00:40;;;;;;;2.28;1.10;;;;;;;;;;5108302;28;20398;-63
2021/10/08 10:03:08;;;;;;;1.60;0.90;;;;;;;;;;5097186;28;20040;-63
2021/10/08 10:05:34;;;;;;;1.50;1.00;;;;;;;;;;5106983;28;20077;-63
2021/10/08 10:08:01;;;;;;;1.48;0.90;;;;;;;;;;5109732;28;20164;-63
2021/10/08 10:10:28;;;;;;;2.45;1.13;;;;;;;;;;5108806;28;20031;-63
2021/10/08 10:12:55;;;;;;;2.83;0.90;;;;;;;;;;5107772;28;20027;-63
2021/10/08 10:15:22;;;;;;;3.17;1.10;;;;;;;;;;5108251;28;20106;-63
2021/10/08 10:17:48;;;;;;;2.97;0.90;;;;;;;;;;5108108;28;20345;-63
2021/10/08 10:20:15;;;;;;;3.20;0.80;;;;;;;;;;5109397;28;20135;-63
2021/10/08 10:22:42;;;;;;;2.65;0.80;;;;;;;;;;5109747;28;20020;-63
2021/10/08 10:25:10;;;;;;;1.02;0.73;;;;;;;;;;5107718;28;20074;-63
2021/10/08 10:27:36;;;;;;;3.22;0.98;;;;;;;;;;5107937;28;20051;-63
2021/10/08 10:30:04;;;;;;;1.27;0.77;;;;;;;;;;5108022;28;20035;-63
2021/10/08 10:32:31;;;;;;;3.45;1.00;;;;;;;;;;5107434;28;20131;-63
2021/10/08 10:34:58;;;;;;;5.72;1.20;;;;;;;;;;5110633;28;20032;-63
2021/10/08 10:37:37;;;;;;;2.85;1.00;;;;;;;;;;5108161;28;20023;-64
2021/10/08 10:40:17;;;;;;;5.05;1.10;;;;;;;;;;5107969;28;20503;-63
2021/10/08 10:42:43;;;;;;;1.98;1.15;;;;;;;;;;5105672;28;20431;-63
2021/10/08 10:45:17;;;;;;;2.85;1.00;;;;;;;;;;5110987;28;20062;-63
2021/10/08 10:47:46;;;;;;;3.05;0.90;;;;;;;;;;5104948;28;20498;-63
2021/10/08 10:50:17;;;;;;;1.90;1.00;;;;;;;;;;5093116;28;20553;-63
2021/10/08 10:52:53;;;;;;;2.20;1.20;;;;;;;;;;5112349;28;20032;-63
2021/10/08 10:55:20;;;;;;;2.03;1.30;;;;;;;;;;5109898;28;20061;-63
2021/10/08 10:57:48;;;;;;;2.90;0.90;;;;;;;;;;5098830;28;20163;-63
2021/10/08 11:00:21;;;;;;;4.47;1.10;;;;;;;;;;5103969;28;20762;-63
2021/10/08 11:02:47;;;;;;;2.63;0.90;;;;;;;;;;5109470;28;20027;-63
2021/10/08 11:05:21;;;;;;;1.67;1.00;;;;;;;;;;5111634;28;20102;-63
2021/10/08 11:08:06;;;;;;;2.78;1.23;;;;;;;;;;5101239;28;20030;-63
2021/10/08 11:10:32;;;;;;;2.00;0.82;;;;;;;;;;5111286;28;20130;-63
2021/10/08 11:13:17;;;;;;;2.47;0.82;;;;;;;;;;5110257;28;20475;-63
2021/10/08 11:15:52;;;;;;;1.20;0.70;;;;;;;;;;5110327;28;20019;-63
2021/10/08 11:18:34;;;;;;;2.47;0.90;;;;;;;;;;5110639;28;20024;-63
2021/10/08 11:21:00;;;;;;;2.97;1.23;;;;;;;;;;5110915;28;20364;-63
2021/10/08 11:23:27;;;;;;;1.75;0.82;;;;;;;;;;5110388;28;20099;-63
2021/10/08 11:25:55;;;;;;;2.05;0.90;;;;;;;;;;5109835;28;20019;-63
2021/10/08 11:28:28;;;;;;;2.38;1.20;;;;;;;;;;5111014;28;20031;-63
2021/10/08 11:30:54;;;;;;;3.55;1.02;;;;;;;;;;5110959;28;20023;-63
2021/10/08 11:33:39;;;;;;;2.88;0.98;;;;;;;;;;5110183;28;20046;-63
2021/10/08 11:36:32;;;;;;;2.72;0.90;;;;;;;;;;5110754;28;20073;-63
2021/10/08 11:39:07;;;;;;;4.35;1.08;;;;;;;;;;5107680;28;20047;-63
2021/10/08 11:41:33;;;;;;;3.25;1.00;;;;;;;;;;5095650;28;20031;-63
2021/10/08 11:44:18;;;;;;;2.00;1.00;;;;;;;;;;5113151;28;20027;-63
2021/10/08 11:47:10;;;;;;;3.40;1.00;;;;;;;;;;5111544;28;20456;-63
2021/10/08 11:49:56;;;;;;;2.75;1.25;;;;;;;;;;5111432;28;20035;-63
2021/10/08 11:52:49;;;;;;;3.35;1.92;;;;;;;;;;5112443;28;20102;-63
2021/10/08 11:55:16;;;;;;;1.00;0.77;;;;;;;;;;5106751;28;20126;-63
2021/10/08 11:57:49;;;;;;;3.63;0.90;;;;;;;;;;5110041;28;20030;-64
2021/10/08 12:00:16;;;;;;;1.63;1.10;;;;;;;;;;5110140;28;20023;-63
2021/10/08 12:02:54;;;;;;;1.65;0.88;;;;;;;;;;5109930;28;20024;-63
2021/10/08 12:05:20;;;;;;;2.17;0.82;;;;;;;;;;5111036;28;20016;-63
2021/10/08 12:07:54;;;;;;;3.70;1.00;;;;;;;;;;5113027;28;20028;-63
2021/10/08 12:10:20;;;;;;;1.40;0.88;;;;;;;;;;5110136;28;20031;-63
2021/10/08 12:12:56;;;;;;;1.35;0.80;;;;;;;;;;5109582;28;20019;-63
2021/10/08 12:15:33;;;;;;;2.35;1.05;;;;;;;;;;5109919;28;20020;-63
2021/10/08 12:18:00;;;;;;;2.30;1.02;;;;;;;;;;5110084;28;20106;-63
2021/10/08 12:20:27;;;;;;;1.30;0.90;;;;;;;;;;5110226;28;20020;-63
2021/10/08 12:23:12;;;;;;;2.67;0.80;;;;;;;;;;5108743;28;20387;-63
2021/10/08 12:25:38;;;;;;;1.95;0.90;;;;;;;;;;5111350;28;20035;-63
2021/10/08 12:28:04;;;;;;;2.58;0.70;;;;;;;;;;5104147;28;20073;-63
2021/10/08 12:30:30;;;;;;;1.73;0.93;;;;;;;;;;5109273;28;20023;-64
2021/10/08 12:33:05;;;;;;;2.42;0.98;;;;;;;;;;5109043;28;20852;-63
2021/10/08 12:35:31;;;;;;;3.72;0.80;;;;;;;;;;5093953;28;20036;-63
2021/10/08 12:38:01;;;;;;;1.23;0.70;;;;;;;;;;5112996;28;20026;-63
2021/10/08 12:40:27;;;;;;;1.10;0.73;;;;;;;;;;5110237;28;20031;-63
2021/10/08 12:42:56;;;;;;;1.90;0.90;;;;;;;;;;5109277;28;20024;-63
2021/10/08 12:45:37;;;;;;;1.58;0.80;;;;;;;;;;5109284;28;20110;-63
2021/10/08 12:48:04;;;;;;;2.00;0.90;;;;;;;;;;5109674;28;20058;-63
2021/10/08 12:50:33;;;;;;;1.77;0.90;;;;;;;;;;5108611;28;20076;-63
2021/10/08 12:52:59;;;;;;;1.88;0.93;;;;;;;;;;5112585;28;20122;-63
2021/10/08 12:55:30;;;;;;;1.00;0.77;;;;;;;;;;5109887;28;20028;-63
2021/10/08 12:58:02;;;;;;;2.97;0.80;;;;;;;;;;5109313;28;20094;-63
2021/10/08 13:00:37;;;;;;;1.00;0.80;;;;;;;;;;5108665;28;20020;-63
2021/10/08 13:03:04;;;;;;;1.90;0.82;;;;;;;;;;5108788;28;20062;-63
2021/10/08 13:05:43;;;;;;;1.90;0.75;;;;;;;;;;5108775;28;20390;-63
2021/10/08 13:08:10;;;;;;;3.22;1.13;;;;;;;;;;5110109;28;20031;-63
2021/10/08 13:10:36;;;;;;;1.77;0.70;;;;;;;;;;5110099;28;20127;-63
2021/10/08 13:13:03;;;;;;;1.70;0.93;;;;;;;;;;5108350;28;20038;-63
2021/10/08 13:15:30;;;;;;;4.38;1.00;;;;;;;;;;5109058;28;20051;-64
2021/10/08 13:18:00;;;;;;;1.83;0.70;;;;;;;;;;5109260;28;20022;-63
2021/10/08 13:20:26;;;;;;;2.05;0.90;;;;;;;;;;5091764;28;20019;-63
2021/10/08 13:22:52;;;;;;;2.15;0.88;;;;;;;;;;5108042;28;20111;-64
2021/10/08 13:25:18;;;;;;;2.55;1.08;;;;;;;;;;5108835;28;20068;-63
2021/10/08 13:27:44;;;;;;;2.67;1.10;;;;;;;;;;5107968;28;20099;-63
2021/10/08 13:30:10;;;;;;;2.53;0.98;;;;;;;;;;5108741;28;20103;-63
2021/10/08 13:32:36;;;;;;;2.53;0.90;;;;;;;;;;5108858;28;20500;-63
2021/10/08 13:35:02;;;;;;;1.50;0.90;;;;;;;;;;5111021;28;20039;-63
2021/10/08 13:37:28;;;;;;;1.92;0.98;;;;;;;;;;5110973;28;20427;-63
2021/10/08 13:39:54;;;;;;;4.97;0.90;;;;;;;;;;5108347;28;20032;-63
2021/10/08 13:42:20;;;;;;;4.95;0.80;;;;;;;;;;5102591;28;20024;-63
2021/10/08 13:44:46;;;;;;;1.50;0.75;;;;;;;;;;5108410;28;20043;-63
2021/10/08 13:47:12;;;;;;;1.95;0.65;;;;;;;;;;5110624;28;20030;-63
2021/10/08 13:49:38;;;;;;;1.42;0.90;;;;;;;;;;5110170;28;20032;-63
2021/10/08 13:52:09;;;;;;;3.33;1.20;;;;;;;;;;5102465;28;20368;-63
2021/10/08 13:54:35;;;;;;;1.90;0.90;;;;;;;;;;5108206;28;20020;-63
2021/10/08 13:57:01;;;;;;;1.63;0.80;;;;;;;;;;5108112;28;20024;-63
2021/10/08 13:59:27;;;;;;;1.92;1.10;;;;;;;;;;5108322;28;20051;-63
2021/10/08 14:04:51;;;;;;;3.20;1.10;;;;;;;;;;5111475;28;20032;-63
2021/10/08 14:12:34;;;;;;;3.33;1.10;;;;;;;;;;5108110;28;20035;-64
2021/10/08 14:15:00;;;;;;;2.95;1.15;;;;;;;;;;5107908;28;20027;-63
2021/10/08 14:17:26;;;;;;;3.83;1.40;;;;;;;;;;5111500;28;20016;-63
2021/10/08 14:19:52;;;;;;;3.95;1.30;;;;;;;;;;5111336;28;20375;-63
2021/10/08 14:22:18;;;;;;;3.70;1.30;;;;;;;;;;5112025;28;20046;-63
2021/10/08 14:24:44;;;;;;;3.42;1.40;;;;;;;;;;5112233;28;20547;-64
2021/10/08 14:27:10;;;;;;;2.58;1.40;;;;;;;;;;5111073;28;20034;-63
2021/10/08 14:29:36;;;;;;;4.05;1.70;;;;;;;;;;5111362;28;20032;-64
2021/10/08 14:32:02;;;;;;;3.35;1.60;;;;;;;;;;5114510;28;20094;-63
2021/10/08 14:34:28;;;;;;;3.65;1.38;;;;;;;;;;5114274;28;20028;-63
2021/10/08 14:36:54;;;;;;;5.82;1.77;;;;;;;;;;5111815;28;20432;-63
2021/10/08 14:39:20;;;;;;;4.75;1.90;;;;;;;;;;5111164;28;20091;-64
2021/10/08 14:41:46;;;;;;;5.30;1.70;;;;;;;;;;5102604;28;20027;-64
2021/10/08 14:44:12;;;;;;;3.17;1.42;;;;;;;;;;5102642;28;20019;-64
2021/10/08 14:46:38;;;;;;;2.20;1.20;;;;;;;;;;5099841;28;20032;-65
2021/10/08 14:49:04;;;;;;;2.60;1.50;;;;;;;;;;5108049;28;20031;-64
2021/10/08 14:51:31;;;;;;;2.13;1.40;;;;;;;;;;5111144;28;20020;-65
2021/10/08 14:54:25;;;;;;;6.35;1.35;;;;;;;;;;5102963;28;20383;-65
2021/10/08 14:59:24;;;;;;;3.15;1.73;;;;;;;;;;5094534;28;20031;-64